Treasure Island

Edna St. Vincent Millay

(22 February 1892 – 19 October 1950 / Rockland / Maine / United States)

Stats

» Click to list general statistics » OR, select a date :

General Statistics

Visitors of the poet

Number of visitors of the poet’s mainpage in PoemHunter.Com

Attention : Numbers in this table does not indicate the total hits of poems of the poet, but indicates the hits of the poet’s main page.

Date Hits
09/20/2014 Saturday 747
46%
09/19/2014 Friday 804
50%
09/18/2014 Thursday 909
57%
09/17/2014 Wednesday 882
55%
09/16/2014 Tuesday 1590
100%
09/15/2014 Monday 1499
94%
09/14/2014 Sunday 1305
82%
09/13/2014 Saturday 1139
71%
09/12/2014 Friday 1199
75%
09/11/2014 Thursday 1363
85%
09/10/2014 Wednesday 800
50%
09/09/2014 Tuesday 753
47%
09/08/2014 Monday 719
45%
09/07/2014 Sunday 675
42%
09/06/2014 Saturday 950
59%
09/05/2014 Friday 1053
66%
09/04/2014 Thursday 757
47%
09/03/2014 Wednesday 650
40%
09/02/2014 Tuesday 982
61%
09/01/2014 Monday 1061
66%

Reader rating & num.of MyPoemList’s

Click the captions of columns to change the order.

# Poem Title Submit Date Reader Rating Num.of MyPoemList’s
Rating Num.R.
1 Grown-up 01/01/2004 6.2 25 31
2 The Betrothal 01/01/2004 5.6 37 13
3 The Blue Flag in the Bog 01/01/2004 5.9 34 4
4 [Four Sonnets (1922)] 01/01/2004 5.2 106 30
5 When I Too Long Have Looked Upon Your Face 01/01/2004 6.2 36 30
6 Bluebeard 01/01/2004 5.5 80 42
7 And you as well must die, belovèd dust 01/01/2004 6.0 76 51
8 Thursday 01/01/2004 5.3 76 11
9 To a Young Poet 01/01/2004 5.9 61 9
10 If I Should Learn, In Some Quite Casual Way 01/01/2004 6.4 40 36
11 Lines for a Grave-Stone 01/01/2004 6.1 37 7
12 Sonnet III: Mindful of you the sodden earth 01/01/2004 5.6 42 5
13 Sonnet IV: Not in this chamber 01/01/2004 5.5 42 3
14 I Shall Go Back 01/01/2004 5.5 39 25
15 No rose that in a garden ever grew 01/01/2004 5.5 36 12
16 We Talk of Taxes... 01/01/2004 6.2 28 4
17 I, Being Born a Woman and Distressed 01/01/2004 6.7 33 53
18 Sonnet V: If I should learn 01/01/2004 5.3 48 4
19 Recuerdo 01/01/2004 6.5 43 19
20 Humoresque 01/01/2004 5.6 30 16
21 I do but ask that you be always fair 01/01/2004 5.5 42 29
22 Sonnet II: Time does not bring relief 01/01/2004 6.0 47 24
23 Sonnets (1923) 01/01/2004 5.3 49 6
24 Oh, my belovèd, have you thought of this 01/01/2004 6.0 36 12
25 Only until this cigarette is ended 01/01/2004 5.5 36 44
26 Sonnet VI: This door you might not open 01/01/2004 5.9 49 12
27 Sonnet I: Thou art not lovelier than lilacs 01/01/2004 5.6 43 10
28 Counting-Out Rhyme 01/01/2004 6.1 98 22
29 Euclid Alone 01/01/2004 5.6 45 16
30 To Kathleen 01/01/2004 5.5 57 4
31 I Know 100 Ways to Die 07/07/2003 7.8 4 28
32 Chorus 01/13/2003 5.8 82 22
33 Sonnet (Women Have Loved Before As I Love Now) 01/13/2003 5.9 44 18
34 Inland 01/13/2003 5.5 36 7
35 The Wood Road 01/13/2003 5.8 44 5
36 Fontaine, Je Ne Boirai Pas De Ton Eau! 01/13/2003 5.5 31 8
37 Ebb 01/13/2003 5.5 81 25
38 Second Fig 01/13/2003 6.0 47 27
39 Wraith 01/13/2003 5.6 29 12
40 I Dreamed I Moved Among The Elysian Fields 01/13/2003 5.9 67 25
41 Memorial To D.C. 01/13/2003 5.8 31 2
42 The Plaid Dress 01/13/2003 5.8 46 10
43 Interim 01/13/2003 6.1 36 14
44 Midnight Oil 01/13/2003 5.9 35 10
45 Love Is Not All 01/13/2003 7.5 78 169
46 Portrait By A Neighbour 01/13/2003 5.9 35 8
47 Rosemary 01/13/2003 5.5 44 6
48 Not Even My Pride Shall Suffer Much 01/13/2003 5.7 37 9
49 The Snow Storm 01/13/2003 5.8 74 7
50 The Leaf And The Tree 01/13/2003 5.8 59 15
51 Kin To Sorrow 01/13/2003 5.5 34 20
52 Lines Written In Recapitulation 01/13/2003 6.2 49 4
53 City Trees 01/13/2003 5.8 132 56
54 To A Poet That Died Young 01/13/2003 5.8 43 7
55 The Shroud 01/13/2003 5.5 57 4
56 Night Is My Sister, And How Deep In Love 01/13/2003 5.7 35 25
57 Sorrow 01/13/2003 5.7 53 26
58 Underground System 01/13/2003 5.8 34 3
59 Apostrophe To Man 01/13/2003 5.8 118 32
60 The Curse 01/13/2003 5.9 68 12
61 Two Sonnets In Memory 01/13/2003 5.9 31 5
62 Scrub 01/13/2003 5.7 42 4
63 Dirge Without Music 01/13/2003 6.5 100 64
64 Spring 01/13/2003 6.0 44 20
65 When We Are Old And These Rejoicing Veins 01/13/2003 5.7 35 14
66 Sonnets 09: Let You Not Say Of Me When I Am Old 01/13/2003 5.6 51 9
67 The Spring And The Fall 01/13/2003 8.0 110 62
68 Sonnets 11: As To Some Lovely Temple, Tenantless 01/13/2003 5.7 44 3
69 Sweet Love, Sweet Thorn, When Lightly To My Heart 01/13/2003 5.6 45 16
70 The Little Hill 01/13/2003 5.8 54 7
71 Wild Swans 01/13/2003 5.9 32 14
72 Think Not, Not For A Moment Let Your Mind 01/13/2003 5.7 54 14
73 Sonnets 12: Cherish You Then The Hope I Shall Forget 01/13/2003 5.5 61 3
74 The Penitent 01/13/2003 5.6 30 10
75 The Goose-Girl 01/13/2003 5.8 69 9
76 Sonnets From An Ungrafted Tree 01/13/2003 5.7 46 4
77 Alms 01/13/2003 5.7 92 26
78 Not In A Silver Casket Cool With Pearls 01/13/2003 5.9 38 20
79 Doubt No More That Oberon 01/13/2003 5.6 66 12
80 Justice Denied In Massachusetts 01/13/2003 5.8 33 8
81 Menses 01/13/2003 5.5 32 6
82 The Fledgling 01/13/2003 5.4 49 2
83 Sonnets 04: Only Until This Cigarette Is Ended 01/13/2003 5.8 34 11
84 I Know I Am But Summer To Your Heart 01/13/2003 6.5 40 47
85 Mist In The Valley 01/13/2003 5.4 33 14
86 The Concert 01/13/2003 5.5 71 7
87 The Singing-Woman From The Wood's Edge 01/13/2003 5.9 45 7
88 The Suicide 01/13/2003 5.5 58 18
89 The True Encounter 01/13/2003 5.9 54 6
90 Whereas At Morning In A Jeweled Crown 01/13/2003 5.4 42 6
91 Weeds 01/13/2003 8.0 1 8
92 The Bean-Stalk 01/13/2003 5.6 58 5
93 Sonnet 03: Mindful Of You The Sodden Earth In Spring 01/13/2003 5.4 42 5
94 The Ballad Of The Harp-Weaver 01/13/2003 5.9 60 27
95 The Blue-Flag In The Bog 01/13/2003 5.3 62 2
96 Elegy 01/13/2003 5.3 42 8
97 Lament 01/13/2003 6.4 39 25
98 Elegy Before Death 01/13/2003 6.1 31 13
99 Song Of A Second April 01/13/2003 5.9 46 8
100 The Fawn 01/13/2003 5.8 66 5
101 A Visit To The Asylum 01/13/2003 6.1 97 56
102 Autumn Daybreak 01/13/2003 5.6 130 43
103 Being Young And Green 01/13/2003 5.5 84 33
104 Dirge 01/13/2003 5.6 68 10
105 Ashes Of Life 01/13/2003 6.0 87 65
106 The Little Ghost 01/13/2003 6.1 38 16
107 Blight 01/13/2003 5.9 96 22
108 Intention To Escape From Him 01/13/2003 6.3 34 21
109 Sonnets 07: When I Too Long Have Looked Upon Your Face 01/13/2003 5.9 44 22
110 Make Bright The Arrows 01/13/2003 5.7 38 4
111 If Still Your Orchards Bear 01/13/2003 5.8 32 7
112 Low-Tide 01/13/2003 4.8 45 14
113 Here Is A Wound That Never Will Heal, I Know 01/13/2003 6.0 56 56
114 I Know The Face Of Falsehood And Her Tongue 01/13/2003 5.6 44 7
115 Witch-Wife 01/13/2003 5.4 39 23
116 Daphne 01/13/2003 5.7 93 33
117 Eel-Grass 01/13/2003 6.0 33 10
118 Epitaph 01/13/2003 6.1 38 17
119 Journey 01/13/2003 6.2 26 17
120 What Lips My Lips Have Kissed, And Where, And Why (Sonnet XLIII) 01/13/2003 7.8 118 363
121 The Dream 01/13/2003 5.8 62 25
122 Sonnet 06: Bluebeard 01/13/2003 6.1 49 7
123 Burial 01/13/2003 5.3 89 30
124 Assault 01/13/2003 5.6 123 20
125 Modern Declaration 01/13/2003 5.6 34 9
126 The Death Of Autumn 01/13/2003 5.9 59 9
127 Sonnet 05: If I Should Learn, In Some Quite Casual Way 01/13/2003 5.9 48 18
128 Sonnets 06: No Rose That In A Garden Ever Grew 01/13/2003 5.6 42 7
129 Three Songs Of Shattering 01/13/2003 5.9 38 7
130 To Those Without Pity 01/13/2003 5.1 39 10
131 Sonnets 05: Once More Into My Arid Days Like Dew 01/13/2003 5.7 32 8
132 Sonnets 10: Oh, My Beloved, Have You Thought Of This 01/13/2003 5.8 44 6
133 The Philosopher 01/13/2003 5.6 44 22
134 Sonnets 08: And You As Well Must Die, Beloved Dust 01/13/2003 5.4 49 6
135 My Most Distinguished Guest And Learned Friend 01/13/2003 5.4 35 9
136 Sonnets 01: We Talk Of Taxes, And I Call You Friend 01/13/2003 5.4 48 9
137 Pastoral 01/13/2003 5.1 35 5
138 Souvenir 01/13/2003 5.6 46 11
139 Sonnet 01: Thou Art Not Lovelier Than Lilacs,—No 01/13/2003 5.7 44 15
140 Sonnet 02: Time Does Not Bring Relief; You All Have Lied 01/13/2003 6.5 66 64
141 Exiled 01/13/2003 6.5 44 21
142 To The Not Impossible Him 01/13/2003 5.3 52 14
143 The Unexplorer 01/13/2003 6.0 49 7
144 Passer Mortuus Est 01/13/2003 5.8 46 9
145 Pity Me Not Because The Light Of Day 01/13/2003 6.3 38 31
146 An Ancient Gesture 01/13/2003 6.0 107 49
147 The Return From Town 01/13/2003 5.5 47 6
148 Invocation To The Muses 01/13/2003 5.6 36 4
149 Mariposa 01/13/2003 6.6 49 12
150 Departure 01/13/2003 5.5 87 38
151 And do you think that love itself 01/13/2003 6.0 113 62
152 Oh, Oh, You Will Be Sorry 01/13/2003 6.4 38 33
153 Travel 01/13/2003 6.0 40 14
154 Prayer To Persephone 01/13/2003 5.5 33 18
155 The Poet And His Book 01/13/2003 6.2 40 10
156 Ode To Silence 01/13/2003 5.9 33 15
157 Indifference 01/13/2003 5.8 33 11
158 Tavern 01/13/2003 5.6 48 7
159 Sonnet 04: Not In This Chamber Only At My Birth 01/13/2003 5.5 43 4
160 Sonnets 02: Into The Golden Vessel Of Great Song 01/13/2003 5.3 55 3
161 Conscientious Objector 01/13/2003 5.4 176 71
162 Sonnets 03: Not With Libations, But With Shouts And Laughter 01/13/2003 5.8 56 6
163 Feast 01/13/2003 6.0 50 14
164 First Fig 01/13/2003 7.5 73 91
165 God's World 01/04/2003 6.1 69 38
166 Afternoon on a Hill 01/04/2003 6.6 118 72
167 When the Year grows Old 01/04/2003 5.7 38 16
168 Renascence 01/04/2003 7.0 31 58
[Hata Bildir]